createdAt,value
2023-04-10T00:00:58.713Z,22.27
2023-04-10T00:05:56.002Z,21.58
2023-04-10T00:10:54.308Z,21.80
2023-04-10T00:15:50.803Z,21.33
2023-04-10T00:20:47.239Z,19.48
2023-04-10T00:25:43.697Z,22.77
2023-04-10T00:30:40.206Z,21.50
2023-04-10T00:35:36.693Z,21.63
2023-04-10T00:40:33.448Z,22.23
2023-04-10T00:45:30.228Z,22.63
2023-04-10T00:50:26.771Z,20.92
2023-04-10T00:55:23.514Z,22.02
2023-04-10T01:00:20.868Z,23.08
2023-04-10T01:10:35.062Z,21.33
2023-04-10T01:15:42.704Z,19.42
2023-04-10T01:20:41.231Z,20.50
2023-04-10T01:25:46.192Z,19.98
2023-04-10T01:30:44.833Z,21.30
2023-04-10T01:35:44.045Z,22.77
2023-04-10T01:40:42.219Z,20.38
2023-04-10T01:45:41.721Z,20.55
2023-04-10T01:50:39.517Z,20.27
2023-04-10T01:55:37.445Z,20.17
2023-04-10T02:00:41.674Z,21.20
2023-04-10T02:05:43.103Z,20.63
2023-04-10T02:10:54.252Z,22.05
2023-04-10T02:15:52.319Z,19.73
2023-04-10T02:20:49.217Z,22.33
2023-04-10T02:25:45.644Z,20.23
2023-04-10T02:30:42.284Z,21.08
2023-04-10T02:35:38.785Z,21.52
2023-04-10T02:40:35.228Z,19.83
2023-04-10T02:45:33.165Z,20.85
2023-04-10T02:50:31.722Z,19.95
2023-04-10T02:55:28.112Z,21.52
2023-04-10T03:00:24.574Z,20.85
2023-04-10T03:05:21.050Z,21.00
2023-04-10T03:10:17.461Z,19.98
2023-04-10T03:15:13.920Z,21.52
2023-04-10T03:20:11.000Z,23.60
2023-04-10T03:25:07.650Z,21.98
2023-04-10T03:30:04.737Z,21.75
2023-04-10T03:35:01.273Z,21.00
2023-04-10T03:39:58.193Z,21.35
2023-04-10T03:44:54.566Z,21.00
2023-04-10T03:49:50.998Z,20.10
2023-04-10T03:54:47.366Z,21.10
2023-04-10T03:59:43.797Z,22.92
2023-04-10T04:04:40.877Z,19.90
2023-04-10T04:09:37.584Z,22.00
2023-04-10T04:14:34.147Z,23.08
2023-04-10T04:19:30.830Z,20.67
2023-04-10T04:24:27.304Z,22.08
2023-04-10T04:29:23.714Z,20.42
2023-04-10T04:34:20.287Z,22.85
2023-04-10T04:39:16.705Z,21.00
2023-04-10T04:44:13.165Z,22.75
2023-04-10T04:49:09.564Z,19.85
2023-04-10T04:54:06.019Z,21.08
2023-04-10T04:59:02.456Z,20.70
2023-04-10T05:03:58.966Z,23.33
2023-04-10T05:08:56.116Z,21.95
2023-04-10T05:13:52.737Z,21.55
2023-04-10T05:18:49.141Z,23.00
2023-04-10T05:23:45.702Z,20.90
2023-04-10T05:28:42.131Z,22.27
2023-04-10T05:33:38.530Z,20.38
2023-04-10T05:38:34.994Z,20.38
2023-04-10T05:43:31.422Z,20.15
2023-04-10T05:48:28.755Z,21.98
2023-04-10T05:53:32.592Z,21.25
2023-04-10T05:58:29.201Z,22.08
2023-04-10T06:03:27.710Z,21.83
2023-04-10T06:08:24.244Z,20.45
2023-04-10T06:13:20.868Z,21.73
2023-04-10T06:18:17.360Z,21.88
2023-04-10T06:23:14.015Z,22.70
2023-04-10T06:28:10.839Z,21.50
2023-04-10T06:33:07.217Z,21.05
2023-04-10T06:38:03.980Z,20.38
2023-04-10T06:43:01.050Z,22.42
2023-04-10T06:47:57.501Z,21.17
2023-04-10T06:52:55.941Z,20.60
2023-04-10T06:57:52.720Z,21.90
2023-04-10T07:02:49.397Z,22.13
2023-04-10T07:07:47.398Z,22.83
2023-04-10T07:12:43.822Z,19.73
2023-04-10T07:17:40.299Z,21.17
2023-04-10T07:22:36.745Z,21.15
2023-04-10T07:27:33.206Z,20.67
2023-04-10T07:32:29.860Z,19.77
2023-04-10T07:37:26.495Z,19.83
2023-04-10T07:42:23.179Z,18.90
2023-04-10T07:47:19.629Z,19.50
2023-04-10T07:52:16.698Z,18.90
2023-04-10T07:57:13.139Z,20.02
2023-04-10T08:02:09.641Z,20.13
2023-04-10T08:07:06.159Z,21.48
2023-04-10T08:12:02.893Z,19.55
2023-04-10T08:16:59.450Z,19.77
2023-04-10T08:21:55.918Z,19.80
2023-04-10T08:26:52.299Z,20.20
2023-04-10T08:31:48.844Z,19.45
2023-04-10T08:36:45.281Z,19.25
2023-04-10T08:41:41.730Z,18.38
2023-04-10T08:46:43.624Z,18.92
2023-04-10T08:51:47.842Z,19.73
2023-04-10T08:56:52.461Z,18.40
2023-04-10T09:01:48.957Z,17.48
2023-04-10T09:06:45.475Z,18.25
2023-04-10T09:11:55.265Z,18.42
2023-04-10T09:16:54.900Z,17.75
2023-04-10T09:21:51.400Z,17.40
2023-04-10T09:26:47.769Z,16.65
2023-04-10T09:31:44.686Z,17.75
2023-04-10T09:37:02.181Z,17.02
2023-04-10T09:41:58.682Z,15.93
2023-04-10T09:46:55.680Z,14.13
2023-04-10T09:51:52.495Z,14.20
2023-04-10T09:56:49.225Z,13.98
2023-04-10T10:01:46.244Z,15.10
2023-04-10T10:06:43.144Z,14.00
2023-04-10T10:11:39.654Z,13.55
2023-04-10T10:16:52.528Z,11.75
2023-04-10T10:21:50.219Z,12.20
2023-04-10T10:26:47.480Z,11.52
2023-04-10T10:31:45.162Z,13.20
2023-04-10T10:36:41.948Z,12.60
2023-04-10T10:41:43.501Z,10.40
2023-04-10T10:46:52.186Z,10.82
2023-04-10T10:51:50.847Z,9.40
2023-04-10T10:56:47.278Z,9.65
2023-04-10T11:02:12.521Z,10.82
2023-04-10T11:07:09.006Z,10.25
2023-04-10T11:12:07.758Z,8.98
2023-04-10T11:17:04.282Z,10.85
2023-04-10T11:22:05.436Z,10.65
2023-04-10T11:27:01.974Z,10.57
2023-04-10T11:32:00.578Z,10.45
2023-04-10T11:36:57.052Z,9.50
2023-04-10T11:41:55.282Z,9.05
2023-04-10T11:46:52.012Z,8.90
2023-04-10T11:51:49.452Z,8.52
2023-04-10T11:56:59.450Z,8.55
2023-04-10T12:02:09.495Z,8.40
2023-04-10T12:07:06.232Z,8.60
2023-04-10T12:12:04.644Z,9.00
2023-04-10T12:17:02.784Z,8.73
2023-04-10T12:22:01.871Z,8.82
2023-04-10T12:27:00.317Z,8.38
2023-04-10T12:31:56.851Z,8.52
2023-04-10T12:36:54.088Z,8.82
2023-04-10T12:41:50.570Z,8.15
2023-04-10T12:46:47.030Z,8.88
2023-04-10T12:51:45.966Z,8.32
2023-04-10T12:56:43.936Z,8.43
2023-04-10T13:01:40.526Z,7.90
2023-04-10T13:06:44.447Z,8.68
2023-04-10T13:11:41.689Z,7.47
2023-04-10T13:16:38.261Z,8.27
2023-04-10T13:21:34.754Z,7.93
2023-04-10T13:26:31.218Z,7.80
2023-04-10T13:31:27.659Z,7.70
2023-04-10T13:36:24.246Z,7.93
2023-04-10T13:41:20.831Z,7.70
2023-04-10T13:46:17.563Z,7.53
2023-04-10T13:51:14.005Z,7.65
2023-04-10T13:56:10.369Z,8.32
2023-04-10T14:01:06.971Z,8.05
2023-04-10T14:06:03.685Z,7.60
2023-04-10T14:11:00.125Z,7.85
2023-04-10T14:15:56.539Z,7.90
2023-04-10T14:20:52.916Z,8.27
2023-04-10T14:25:50.406Z,9.05
2023-04-10T14:30:51.334Z,8.70
2023-04-10T14:35:48.180Z,8.20
2023-04-10T14:40:48.427Z,8.93
2023-04-10T14:45:44.811Z,9.30
2023-04-10T14:50:41.296Z,9.10
2023-04-10T14:55:37.801Z,9.20
2023-04-10T15:00:34.709Z,8.75
2023-04-10T15:05:31.160Z,9.13
2023-04-10T15:10:30.742Z,8.80
2023-04-10T15:15:27.175Z,8.30
2023-04-10T15:20:23.575Z,7.80
2023-04-10T15:25:20.019Z,8.27
2023-04-10T15:30:17.356Z,7.80
2023-04-10T15:35:13.718Z,7.85
2023-04-10T15:40:10.565Z,8.20
2023-04-10T15:45:07.445Z,7.95
2023-04-10T15:50:04.731Z,7.13
2023-04-10T15:55:01.283Z,7.95
2023-04-10T16:00:00.360Z,7.45
2023-04-10T16:04:57.273Z,6.90
2023-04-10T16:09:55.129Z,7.50
2023-04-10T16:14:51.555Z,7.32
2023-04-10T16:19:48.013Z,7.65
2023-04-10T16:24:44.447Z,8.20
2023-04-10T16:29:41.039Z,9.07
2023-04-10T16:34:37.468Z,8.50
2023-04-10T16:39:33.966Z,9.25
2023-04-10T16:44:31.555Z,8.60
2023-04-10T16:49:28.005Z,9.73
2023-04-10T16:54:24.421Z,8.75
2023-04-10T16:59:20.866Z,9.23
2023-04-10T17:04:18.939Z,8.50
2023-04-10T17:09:15.371Z,8.52
2023-04-10T17:14:13.290Z,8.95
2023-04-10T17:19:09.666Z,8.63
2023-04-10T17:24:06.045Z,7.95
2023-04-10T17:29:02.448Z,8.57
2023-04-10T17:33:58.811Z,8.90
2023-04-10T17:38:55.600Z,8.93
2023-04-10T17:43:52.354Z,9.02
2023-04-10T17:48:48.899Z,9.27
2023-04-10T17:53:46.203Z,8.90
2023-04-10T17:58:43.055Z,8.98
2023-04-10T18:03:39.639Z,9.30
2023-04-10T18:08:36.441Z,9.80
2023-04-10T18:13:35.709Z,8.63
2023-04-10T18:18:34.395Z,8.95
2023-04-10T18:23:31.451Z,9.63
2023-04-10T18:28:27.860Z,12.07
2023-04-10T18:33:25.113Z,9.75
2023-04-10T18:38:21.632Z,10.77
2023-04-10T18:43:18.133Z,9.63
2023-04-10T18:48:14.545Z,10.23
2023-04-10T18:53:11.054Z,9.52
2023-04-10T18:58:07.480Z,9.32
2023-04-10T19:03:04.108Z,9.68
2023-04-10T19:08:04.993Z,9.93
2023-04-10T19:13:01.751Z,10.98
2023-04-10T19:17:58.208Z,9.95
2023-04-10T19:22:54.655Z,9.75
2023-04-10T19:27:51.238Z,9.88
2023-04-10T19:32:47.795Z,9.85
2023-04-10T19:37:44.357Z,9.82
2023-04-10T19:42:40.934Z,10.00
2023-04-10T19:47:37.527Z,10.73
2023-04-10T19:52:34.005Z,9.85
2023-04-10T19:57:30.462Z,9.98
2023-04-10T20:02:27.250Z,10.32
2023-04-10T20:07:26.112Z,10.15
2023-04-10T20:12:22.692Z,9.95
2023-04-10T20:17:19.177Z,9.45
2023-04-10T20:22:15.811Z,9.32
2023-04-10T20:27:14.479Z,9.85
2023-04-10T20:32:11.025Z,9.63
2023-04-10T20:37:07.571Z,8.95
2023-04-10T20:42:04.231Z,9.73
2023-04-10T20:47:01.846Z,9.23
2023-04-10T20:52:04.293Z,8.98
2023-04-10T21:01:58.970Z,9.18
2023-04-10T21:06:55.594Z,8.75
2023-04-10T21:11:52.147Z,9.15
2023-04-10T21:16:59.458Z,8.55
2023-04-10T21:27:40.422Z,8.82
2023-04-10T21:32:39.602Z,8.87
2023-04-10T21:37:36.250Z,8.77
2023-04-10T21:42:33.376Z,9.82
2023-04-10T21:47:29.856Z,8.68
2023-04-10T21:52:26.331Z,8.35
2023-04-10T21:57:28.518Z,7.32
2023-04-10T22:13:49.107Z,5.72
2023-04-10T22:18:46.038Z,5.10
2023-04-10T22:23:42.592Z,6.05
2023-04-10T22:28:39.042Z,5.63
2023-04-10T22:33:37.852Z,5.50
2023-04-10T22:38:35.524Z,5.82
2023-04-10T22:43:34.123Z,5.60
2023-04-10T22:48:30.570Z,5.40
2023-04-10T22:53:28.664Z,5.22
2023-04-10T22:58:25.623Z,5.80
2023-04-10T23:03:22.192Z,5.60
2023-04-10T23:08:18.710Z,5.70
2023-04-10T23:13:15.272Z,5.43
2023-04-10T23:18:21.465Z,5.80
2023-04-10T23:23:18.413Z,5.53
2023-04-10T23:28:14.867Z,5.38
2023-04-10T23:33:11.305Z,5.20
2023-04-10T23:38:07.790Z,5.57
2023-04-10T23:43:05.028Z,5.53
2023-04-10T23:48:01.641Z,5.18
2023-04-10T23:53:00.121Z,4.82
2023-04-10T23:57:56.656Z,4.72
